»·PEaware :: QXE586 KBOI-KSMF

QXE586 :: KBOI-KSMF

FLIGHT INFORMATION

Flight Status: Arrived
Operator:
Horizon Air
More flights by this operator :: More flights under this callsign
Pilot: Matthew M. (8235)
Aircraft: DEHAVILLAND DASH 8 400
(DH8D)
More flights by this aircraft type
Origin: KBOI Boise Air Terminal/Gowen
United States
Destination: KSMF Sacramento Intl
United States
More flights between these airports :: More routes between these airports
Route: BOI3 BOI HYVAL REO ANAHO SLMMR3
File this flight plan on PilotEdge
Remarks:
Altitude:
(Current/Filed)
24,000ft
Speed:
(Current/Filed)
317kts
Departed: 18-Apr-20 02:00 PM
Arrived: 18-Apr-20 03:33 PM
Distance/Time
Traveled:
380nm/1:33
Distance/Time
To Go:
Arrived

Flight Plot

Page will automatically refresh every two minutes.


Map Options




Map Legend


Flown Route
Filed Route
Departure Airport
Arrival Airport
Navaid (VOR, NDB)
Fix

Horizontal Profiles

Position Reports

Time Latitude Longitude Heading Altitude Ground
Speed
18-Apr-20 13:23 43.567805 -116.219517 225 2878ft 0kts
18-Apr-20 13:24 43.567805 -116.219517 225 2878ft 0kts
18-Apr-20 13:32 43.567624 -116.218830 210 2879ft 0kts
18-Apr-20 13:33 43.567624 -116.218830 210 2879ft 0kts
18-Apr-20 13:34 43.567624 -116.218830 210 2879ft 0kts
18-Apr-20 13:35 43.567624 -116.218830 210 2879ft 0kts
18-Apr-20 13:36 43.567624 -116.218830 210 2879ft 0kts
18-Apr-20 13:37 43.567624 -116.218830 210 2879ft 0kts
18-Apr-20 13:38 43.567624 -116.218830 210 2878ft 0kts
18-Apr-20 13:39 43.567624 -116.218830 210 2878ft 0kts
18-Apr-20 13:40 43.567624 -116.218830 210 2878ft 0kts
18-Apr-20 13:41 43.567624 -116.218830 210 2878ft 0kts
18-Apr-20 13:42 43.567624 -116.218830 210 2878ft 0kts
18-Apr-20 13:43 43.567624 -116.218830 210 2878ft 0kts
18-Apr-20 13:44 43.567624 -116.218830 210 2878ft 0kts
18-Apr-20 13:45 43.567624 -116.218830 210 2878ft 0kts
18-Apr-20 13:46 43.567624 -116.218830 210 2878ft 0kts
18-Apr-20 13:47 43.567624 -116.218830 210 2878ft 0kts
18-Apr-20 13:48 43.568079 -116.218988 105 2878ft 2kts
18-Apr-20 13:49 43.568092 -116.219054 105 2878ft 0kts
18-Apr-20 13:50 43.568093 -116.219055 105 2878ft 0kts
18-Apr-20 13:51 43.567590 -116.217139 112 2878ft 0kts
18-Apr-20 13:52 43.566370 -116.216944 246 2878ft 17kts
18-Apr-20 13:53 43.566339 -116.221796 294 2878ft 11kts
18-Apr-20 13:54 43.567870 -116.226338 295 2878ft 16kts
18-Apr-20 13:55 43.570154 -116.233119 295 2878ft 22kts
18-Apr-20 13:56 43.570776 -116.236132 206 2878ft 0kts
18-Apr-20 13:57 43.570776 -116.236132 206 2878ft 0kts
18-Apr-20 13:58 43.570308 -116.236440 195 2878ft 10kts
18-Apr-20 13:59 43.560928 -116.209399 112 3389ft 148kts
18-Apr-20 14:00 43.542103 -116.154893 112 5934ft 181kts
18-Apr-20 14:01 43.520710 -116.082349 111 7967ft 238kts
18-Apr-20 14:02 43.471130 -116.037789 199 10092ft 253kts
18-Apr-20 14:03 43.431500 -116.113070 244 11844ft 264kts
18-Apr-20 14:04 43.399378 -116.202371 245 13607ft 268kts
18-Apr-20 14:05 43.369294 -116.286412 245 15239ft 267kts
18-Apr-20 14:06 43.339289 -116.369943 245 16571ft 271kts
18-Apr-20 14:07 43.306034 -116.462394 245 17822ft 275kts
18-Apr-20 14:08 43.272083 -116.556484 244 18758ft 284kts
18-Apr-20 14:09 43.236234 -116.655229 245 19563ft 293kts
18-Apr-20 14:10 43.199923 -116.754880 245 20358ft 297kts
18-Apr-20 14:11 43.162705 -116.856820 245 21161ft 299kts
18-Apr-20 14:12 43.121465 -116.956918 234 21970ft 302kts
18-Apr-20 14:13 43.068748 -117.046960 234 22773ft 302kts
18-Apr-20 14:14 43.017037 -117.136756 234 23570ft 301kts
18-Apr-20 14:15 42.965736 -117.225870 234 23932ft 313kts
18-Apr-20 14:16 42.914385 -117.314866 234 23947ft 327kts
18-Apr-20 14:17 42.861107 -117.406636 234 23946ft 335kts
18-Apr-20 14:18 42.807263 -117.498985 233 23936ft 339kts
18-Apr-20 14:19 42.751569 -117.594259 233 23927ft 337kts
18-Apr-20 14:20 42.696489 -117.688315 233 23926ft 335kts
18-Apr-20 14:21 42.640690 -117.783125 233 23925ft 334kts
18-Apr-20 14:22 42.583626 -117.871529 217 23922ft 338kts
18-Apr-20 14:23 42.505384 -117.920517 207 23925ft 341kts
18-Apr-20 14:24 42.424719 -117.970486 207 23926ft 341kts
18-Apr-20 14:25 42.344869 -118.019302 207 23927ft 341kts
18-Apr-20 14:26 42.263892 -118.068566 207 23928ft 342kts
18-Apr-20 14:27 42.183779 -118.117319 207 23931ft 342kts
18-Apr-20 14:28 42.104422 -118.165295 207 23934ft 342kts
18-Apr-20 14:29 42.023056 -118.214420 207 23937ft 342kts
18-Apr-20 14:30 41.941804 -118.263369 207 23940ft 342kts
18-Apr-20 14:31 41.862417 -118.311025 207 23944ft 342kts
18-Apr-20 14:32 41.781841 -118.359305 206 23947ft 342kts
18-Apr-20 14:33 41.699863 -118.408239 206 23951ft 342kts
18-Apr-20 14:34 41.616518 -118.457877 206 23956ft 341kts
18-Apr-20 14:35 41.534063 -118.506743 206 23963ft 341kts
18-Apr-20 14:36 41.455125 -118.553614 206 23966ft 341kts
18-Apr-20 14:37 41.376284 -118.600167 206 23967ft 341kts
18-Apr-20 14:38 41.296607 -118.647091 206 23974ft 341kts
18-Apr-20 14:39 41.213429 -118.695960 206 23976ft 341kts
18-Apr-20 14:40 41.131274 -118.744082 206 23980ft 341kts
18-Apr-20 14:41 41.050536 -118.791268 206 23983ft 342kts
18-Apr-20 14:42 40.969790 -118.838304 206 23991ft 342kts
18-Apr-20 14:43 40.882752 -118.888943 206 23991ft 343kts
18-Apr-20 14:44 40.801559 -118.935913 206 23990ft 343kts
18-Apr-20 14:45 40.715948 -118.985405 206 23990ft 344kts
18-Apr-20 14:46 40.631461 -119.034092 206 23991ft 344kts
18-Apr-20 14:47 40.549982 -119.080914 206 23991ft 345kts
18-Apr-20 14:48 40.466518 -119.128747 206 23991ft 346kts
18-Apr-20 14:49 40.383351 -119.176288 206 23992ft 347kts
18-Apr-20 14:50 40.299023 -119.224262 206 23993ft 348kts
18-Apr-20 14:51 40.215425 -119.271895 206 23995ft 348kts
18-Apr-20 14:52 40.129581 -119.320548 206 23998ft 349kts
18-Apr-20 14:53 40.043329 -119.369266 206 23999ft 347kts
18-Apr-20 14:54 39.958889 -119.423935 226 24002ft 338kts
18-Apr-20 14:55 39.910456 -119.512753 240 24003ft 277kts
18-Apr-20 14:57 39.869014 -119.591809 240 24016ft 260kts
18-Apr-20 14:58 39.827432 -119.671262 240 24016ft 270kts
18-Apr-20 14:59 39.784775 -119.752203 240 24021ft 275kts
18-Apr-20 15:00 39.741895 -119.833514 239 24035ft 277kts
18-Apr-20 15:01 39.698435 -119.915606 240 23921ft 274kts
18-Apr-20 15:02 39.656991 -119.993680 240 22840ft 267kts
18-Apr-20 15:03 39.617334 -120.068239 239 22105ft 261kts
18-Apr-20 15:04 39.578204 -120.141874 239 22074ft 264kts
18-Apr-20 15:05 39.537088 -120.218642 239 22099ft 267kts
18-Apr-20 15:06 39.496988 -120.293463 239 21280ft 271kts
18-Apr-20 15:07 39.449554 -120.365641 219 19780ft 259kts
18-Apr-20 15:08 39.393031 -120.413999 218 18792ft 231kts
18-Apr-20 15:09 39.342174 -120.458251 218 17891ft 208kts
18-Apr-20 15:10 39.296850 -120.497576 219 17089ft 189kts
18-Apr-20 15:11 39.255170 -120.533739 219 16351ft 172kts
18-Apr-20 15:12 39.216511 -120.567223 218 15648ft 159kts
18-Apr-20 15:13 39.172608 -120.586884 208 15512ft 181kts
18-Apr-20 15:13 39.138019 -120.624516 230 14527ft 199kts
18-Apr-20 15:15 39.092640 -120.673537 219 13471ft 187kts
18-Apr-20 15:16 39.066658 -120.723428 253 12767ft 183kts
18-Apr-20 15:17 39.050232 -120.784105 253 11990ft 198kts
18-Apr-20 15:17 39.035536 -120.840203 253 11238ft 218kts
18-Apr-20 15:18 39.016392 -120.913663 252 10229ft 231kts
18-Apr-20 15:20 38.993163 -121.002347 251 9080ft 239kts
18-Apr-20 15:20 38.976154 -121.066887 251 8254ft 240kts
18-Apr-20 15:21 38.955464 -121.145290 250 7342ft 234kts
18-Apr-20 15:22 38.939661 -121.223193 263 5916ft 228kts
18-Apr-20 15:23 38.934464 -121.300685 264 3800ft 221kts
18-Apr-20 15:24 38.929025 -121.374736 263 2111ft 210kts
18-Apr-20 15:25 38.924745 -121.447635 264 2011ft 213kts
18-Apr-20 15:26 38.920442 -121.523068 264 2004ft 223kts
18-Apr-20 15:27 38.883087 -121.573062 193 2006ft 221kts
18-Apr-20 15:28 38.823241 -121.578579 181 2004ft 225kts
18-Apr-20 15:29 38.771636 -121.579009 181 1284ft 160kts
18-Apr-20 15:30 38.733946 -121.579736 180 580ft 121kts
18-Apr-20 15:31 38.700030 -121.580203 180 36ft 94kts
18-Apr-20 15:32 38.691986 -121.581396 220 36ft 11kts
18-Apr-20 15:33 38.693649 -121.582986 335 36ft 10kts
18-Apr-20 15:34 38.692538 -121.584610 237 36ft 5kts
18-Apr-20 15:35 38.692519 -121.585207 275 35ft 0kts

Navigation Log

Ident Type
Flight plan parsing failed, navigation log unavailable